sensor_id;sensor_type;location;lat;lon;timestamp;temperature;humidity
59651;DHT22;45954;49.768;8.636;2023-03-01T00:02:21;2.10;99.30
59651;DHT22;45954;49.768;8.636;2023-03-01T00:04:47;2.30;99.20
59651;DHT22;45954;49.768;8.636;2023-03-01T00:07:13;2.40;98.70
59651;DHT22;45954;49.768;8.636;2023-03-01T00:09:39;2.40;98.60
59651;DHT22;45954;49.768;8.636;2023-03-01T00:12:06;2.40;99.20
59651;DHT22;45954;49.768;8.636;2023-03-01T00:14:32;2.20;99.80
59651;DHT22;45954;49.768;8.636;2023-03-01T00:16:58;2.10;99.70
59651;DHT22;45954;49.768;8.636;2023-03-01T00:19:24;2.10;99.60
59651;DHT22;45954;49.768;8.636;2023-03-01T00:21:50;2.10;99.50
59651;DHT22;45954;49.768;8.636;2023-03-01T00:24:16;2.00;99.80
59651;DHT22;45954;49.768;8.636;2023-03-01T00:26:42;2.20;99.50
59651;DHT22;45954;49.768;8.636;2023-03-01T00:29:09;2.20;99.40
59651;DHT22;45954;49.768;8.636;2023-03-01T00:31:35;2.40;99.10
59651;DHT22;45954;49.768;8.636;2023-03-01T00:34:05;2.50;98.90
59651;DHT22;45954;49.768;8.636;2023-03-01T00:36:34;2.50;99.00
59651;DHT22;45954;49.768;8.636;2023-03-01T00:39:03;2.40;98.90
59651;DHT22;45954;49.768;8.636;2023-03-01T00:41:30;2.30;99.10
59651;DHT22;45954;49.768;8.636;2023-03-01T00:43:56;2.50;98.90
59651;DHT22;45954;49.768;8.636;2023-03-01T00:46:24;2.40;98.90
59651;DHT22;45954;49.768;8.636;2023-03-01T00:48:51;2.50;98.70
59651;DHT22;45954;49.768;8.636;2023-03-01T00:51:24;2.50;98.80
59651;DHT22;45954;49.768;8.636;2023-03-01T00:53:54;2.50;98.70
59651;DHT22;45954;49.768;8.636;2023-03-01T00:56:23;2.50;99.10
59651;DHT22;45954;49.768;8.636;2023-03-01T00:58:49;2.40;98.80
59651;DHT22;45954;49.768;8.636;2023-03-01T01:01:21;2.40;98.90
59651;DHT22;45954;49.768;8.636;2023-03-01T01:03:52;2.40;99.00
59651;DHT22;45954;49.768;8.636;2023-03-01T01:06:31;2.30;99.30
59651;DHT22;45954;49.768;8.636;2023-03-01T01:08:59;2.20;99.30
59651;DHT22;45954;49.768;8.636;2023-03-01T01:11:28;2.10;99.50
59651;DHT22;45954;49.768;8.636;2023-03-01T01:13:56;1.90;99.90
59651;DHT22;45954;49.768;8.636;2023-03-01T01:16:24;1.80;99.90
59651;DHT22;45954;49.768;8.636;2023-03-01T01:18:52;1.70;99.90
59651;DHT22;45954;49.768;8.636;2023-03-01T01:21:21;1.70;99.90
59651;DHT22;45954;49.768;8.636;2023-03-01T01:23:49;1.70;99.90
59651;DHT22;45954;49.768;8.636;2023-03-01T01:26:21;1.50;99.90
59651;DHT22;45954;49.768;8.636;2023-03-01T01:28:49;1.50;99.90
59651;DHT22;45954;49.768;8.636;2023-03-01T01:31:15;1.50;99.90
59651;DHT22;45954;49.768;8.636;2023-03-01T01:33:41;1.30;99.90
59651;DHT22;45954;49.768;8.636;2023-03-01T01:36:08;1.40;99.90
59651;DHT22;45954;49.768;8.636;2023-03-01T01:38:35;1.30;99.90
59651;DHT22;45954;49.768;8.636;2023-03-01T01:41:03;1.40;99.90
59651;DHT22;45954;49.768;8.636;2023-03-01T01:43:34;1.40;99.90
59651;DHT22;45954;49.768;8.636;2023-03-01T01:46:06;1.40;99.90
59651;DHT22;45954;49.768;8.636;2023-03-01T01:48:43;1.40;99.90
59651;DHT22;45954;49.768;8.636;2023-03-01T01:51:19;1.50;99.90
59651;DHT22;45954;49.768;8.636;2023-03-01T01:53:53;1.50;99.90
59651;DHT22;45954;49.768;8.636;2023-03-01T01:56:24;1.30;99.90
59651;DHT22;45954;49.768;8.636;2023-03-01T01:58:52;1.40;99.90
59651;DHT22;45954;49.768;8.636;2023-03-01T02:01:19;1.40;99.90
59651;DHT22;45954;49.768;8.636;2023-03-01T02:03:46;1.30;99.90
59651;DHT22;45954;49.768;8.636;2023-03-01T02:08:50;0.90;99.90
59651;DHT22;45954;49.768;8.636;2023-03-01T02:11:19;0.50;99.90
59651;DHT22;45954;49.768;8.636;2023-03-01T02:13:47;0.80;99.90
59651;DHT22;45954;49.768;8.636;2023-03-01T02:16:15;0.80;99.90
59651;DHT22;45954;49.768;8.636;2023-03-01T02:18:43;0.70;99.90
59651;DHT22;45954;49.768;8.636;2023-03-01T02:27:46;0.90;99.90
59651;DHT22;45954;49.768;8.636;2023-03-01T02:30:20;1.10;99.90
59651;DHT22;45954;49.768;8.636;2023-03-01T02:32:49;1.00;99.90
59651;DHT22;45954;49.768;8.636;2023-03-01T02:35:19;1.20;99.90
59651;DHT22;45954;49.768;8.636;2023-03-01T02:37:48;1.30;99.90
59651;DHT22;45954;49.768;8.636;2023-03-01T02:40:17;1.30;99.90
59651;DHT22;45954;49.768;8.636;2023-03-01T02:42:54;1.30;99.90
59651;DHT22;45954;49.768;8.636;2023-03-01T02:45:22;1.50;99.90
59651;DHT22;45954;49.768;8.636;2023-03-01T02:47:49;1.30;99.90
59651;DHT22;45954;49.768;8.636;2023-03-01T02:50:45;1.30;99.90
59651;DHT22;45954;49.768;8.636;2023-03-01T02:53:39;1.50;99.90
59651;DHT22;45954;49.768;8.636;2023-03-01T02:56:11;1.50;99.90
59651;DHT22;45954;49.768;8.636;2023-03-01T02:58:40;1.50;99.90
59651;DHT22;45954;49.768;8.636;2023-03-01T03:01:12;1.50;99.90
59651;DHT22;45954;49.768;8.636;2023-03-01T03:03:41;1.50;99.90
59651;DHT22;45954;49.768;8.636;2023-03-01T03:06:09;1.60;99.90
59651;DHT22;45954;49.768;8.636;2023-03-01T03:08:35;1.70;99.90
59651;DHT22;45954;49.768;8.636;2023-03-01T03:11:01;1.70;99.90
59651;DHT22;45954;49.768;8.636;2023-03-01T03:13:27;1.70;99.90
59651;DHT22;45954;49.768;8.636;2023-03-01T03:15:56;1.80;99.90
59651;DHT22;45954;49.768;8.636;2023-03-01T03:18:24;1.70;99.90
59651;DHT22;45954;49.768;8.636;2023-03-01T03:20:54;1.70;99.90
59651;DHT22;45954;49.768;8.636;2023-03-01T03:23:21;1.60;99.90
59651;DHT22;45954;49.768;8.636;2023-03-01T03:25:49;1.60;99.90
59651;DHT22;45954;49.768;8.636;2023-03-01T03:28:15;1.50;99.90
59651;DHT22;45954;49.768;8.636;2023-03-01T03:30:42;1.50;99.90
59651;DHT22;45954;49.768;8.636;2023-03-01T03:33:09;1.10;99.90
59651;DHT22;45954;49.768;8.636;2023-03-01T03:35:45;0.70;99.90
59651;DHT22;45954;49.768;8.636;2023-03-01T03:38:15;0.60;99.90
59651;DHT22;45954;49.768;8.636;2023-03-01T03:40:48;0.80;99.90
59651;DHT22;45954;49.768;8.636;2023-03-01T03:43:20;0.90;99.90
59651;DHT22;45954;49.768;8.636;2023-03-01T03:45:49;1.00;99.90
59651;DHT22;45954;49.768;8.636;2023-03-01T03:48:16;1.10;99.90
59651;DHT22;45954;49.768;8.636;2023-03-01T03:50:49;0.90;99.90
59651;DHT22;45954;49.768;8.636;2023-03-01T03:53:16;0.80;99.90
59651;DHT22;45954;49.768;8.636;2023-03-01T03:55:43;0.60;99.90
59651;DHT22;45954;49.768;8.636;2023-03-01T03:58:10;0.70;99.90
59651;DHT22;45954;49.768;8.636;2023-03-01T04:00:43;0.40;99.90
59651;DHT22;45954;49.768;8.636;2023-03-01T04:03:11;0.70;99.90
59651;DHT22;45954;49.768;8.636;2023-03-01T04:05:39;0.70;99.90
59651;DHT22;45954;49.768;8.636;2023-03-01T04:08:06;0.50;99.90
59651;DHT22;45954;49.768;8.636;2023-03-01T04:10:39;0.70;99.90
59651;DHT22;45954;49.768;8.636;2023-03-01T04:13:10;0.80;99.90
59651;DHT22;45954;49.768;8.636;2023-03-01T04:15:37;0.80;99.90
59651;DHT22;45954;49.768;8.636;2023-03-01T04:18:04;0.60;99.90
59651;DHT22;45954;49.768;8.636;2023-03-01T04:20:33;0.70;99.90
59651;DHT22;45954;49.768;8.636;2023-03-01T04:23:04;0.30;99.90
59651;DHT22;45954;49.768;8.636;2023-03-01T04:25:51;0.40;99.90
59651;DHT22;45954;49.768;8.636;2023-03-01T04:28:33;0.50;99.90
59651;DHT22;45954;49.768;8.636;2023-03-01T04:31:06;0.50;99.90
59651;DHT22;45954;49.768;8.636;2023-03-01T04:33:49;0.00;99.90
59651;DHT22;45954;49.768;8.636;2023-03-01T04:36:21;0.10;99.90
59651;DHT22;45954;49.768;8.636;2023-03-01T04:38:49;0.20;99.90
59651;DHT22;45954;49.768;8.636;2023-03-01T04:41:21;0.10;99.90
59651;DHT22;45954;49.768;8.636;2023-03-01T04:43:48;0.20;99.90
59651;DHT22;45954;49.768;8.636;2023-03-01T04:46:17;0.00;99.90
59651;DHT22;45954;49.768;8.636;2023-03-01T04:48:45;0.50;99.90
59651;DHT22;45954;49.768;8.636;2023-03-01T04:51:12;0.80;99.90
59651;DHT22;45954;49.768;8.636;2023-03-01T04:53:39;1.00;99.90
59651;DHT22;45954;49.768;8.636;2023-03-01T04:56:06;0.80;99.90
59651;DHT22;45954;49.768;8.636;2023-03-01T04:58:32;0.80;99.90
59651;DHT22;45954;49.768;8.636;2023-03-01T05:00:58;0.90;99.90
59651;DHT22;45954;49.768;8.636;2023-03-01T05:03:24;0.80;99.90
59651;DHT22;45954;49.768;8.636;2023-03-01T05:05:52;0.90;99.90
59651;DHT22;45954;49.768;8.636;2023-03-01T05:08:18;0.80;99.90
59651;DHT22;45954;49.768;8.636;2023-03-01T05:10:51;0.90;99.90
59651;DHT22;45954;49.768;8.636;2023-03-01T05:13:20;0.50;99.90
59651;DHT22;45954;49.768;8.636;2023-03-01T05:15:58;0.40;99.90
59651;DHT22;45954;49.768;8.636;2023-03-01T05:18:28;0.40;99.90
59651;DHT22;45954;49.768;8.636;2023-03-01T05:21:02;0.70;99.90
59651;DHT22;45954;49.768;8.636;2023-03-01T05:23:31;0.60;99.90
59651;DHT22;45954;49.768;8.636;2023-03-01T05:25:59;0.30;99.90
59651;DHT22;45954;49.768;8.636;2023-03-01T05:28:27;0.50;99.90
59651;DHT22;45954;49.768;8.636;2023-03-01T05:30:54;0.70;99.90
59651;DHT22;45954;49.768;8.636;2023-03-01T05:33:20;0.60;99.90
59651;DHT22;45954;49.768;8.636;2023-03-01T05:35:48;0.60;99.90
59651;DHT22;45954;49.768;8.636;2023-03-01T05:38:16;0.40;99.90
59651;DHT22;45954;49.768;8.636;2023-03-01T05:40:44;0.20;99.90
59651;DHT22;45954;49.768;8.636;2023-03-01T05:43:14;0.00;99.90
59651;DHT22;45954;49.768;8.636;2023-03-01T05:45:41;0.00;99.90
59651;DHT22;45954;49.768;8.636;2023-03-01T05:48:08;0.20;99.90
59651;DHT22;45954;49.768;8.636;2023-03-01T05:50:43;0.10;99.90
59651;DHT22;45954;49.768;8.636;2023-03-01T05:53:13;0.10;99.90
59651;DHT22;45954;49.768;8.636;2023-03-01T05:55:41;0.10;99.90
59651;DHT22;45954;49.768;8.636;2023-03-01T05:58:12;0.10;99.90
59651;DHT22;45954;49.768;8.636;2023-03-01T06:00:41;0.20;99.90
59651;DHT22;45954;49.768;8.636;2023-03-01T06:03:10;0.30;99.90
59651;DHT22;45954;49.768;8.636;2023-03-01T06:05:37;0.40;99.90
59651;DHT22;45954;49.768;8.636;2023-03-01T06:08:05;0.60;99.90
59651;DHT22;45954;49.768;8.636;2023-03-01T06:10:31;0.70;99.90
59651;DHT22;45954;49.768;8.636;2023-03-01T06:12:57;0.50;99.90
59651;DHT22;45954;49.768;8.636;2023-03-01T06:15:24;0.60;99.90
59651;DHT22;45954;49.768;8.636;2023-03-01T06:17:51;-0.10;99.90
59651;DHT22;45954;49.768;8.636;2023-03-01T06:20:20;0.20;99.90
59651;DHT22;45954;49.768;8.636;2023-03-01T06:22:48;0.00;99.90
59651;DHT22;45954;49.768;8.636;2023-03-01T06:25:20;0.10;99.90
59651;DHT22;45954;49.768;8.636;2023-03-01T06:27:48;0.40;99.90
59651;DHT22;45954;49.768;8.636;2023-03-01T06:30:17;0.20;99.90
59651;DHT22;45954;49.768;8.636;2023-03-01T06:32:43;0.00;99.90
59651;DHT22;45954;49.768;8.636;2023-03-01T06:35:14;0.10;99.90
59651;DHT22;45954;49.768;8.636;2023-03-01T06:37:43;0.30;99.90
59651;DHT22;45954;49.768;8.636;2023-03-01T06:40:11;0.30;99.90
59651;DHT22;45954;49.768;8.636;2023-03-01T06:42:41;0.60;99.90
59651;DHT22;45954;49.768;8.636;2023-03-01T06:45:08;0.90;99.90
59651;DHT22;45954;49.768;8.636;2023-03-01T06:47:34;1.10;99.90
59651;DHT22;45954;49.768;8.636;2023-03-01T06:50:01;1.20;99.90
59651;DHT22;45954;49.768;8.636;2023-03-01T06:52:27;1.30;99.90
59651;DHT22;45954;49.768;8.636;2023-03-01T06:54:53;1.40;99.90
59651;DHT22;45954;49.768;8.636;2023-03-01T06:57:19;1.50;99.90
59651;DHT22;45954;49.768;8.636;2023-03-01T06:59:47;1.40;99.90
59651;DHT22;45954;49.768;8.636;2023-03-01T07:02:14;1.40;99.90
59651;DHT22;45954;49.768;8.636;2023-03-01T07:04:41;1.40;99.90
59651;DHT22;45954;49.768;8.636;2023-03-01T07:07:08;1.50;99.90
59651;DHT22;45954;49.768;8.636;2023-03-01T07:09:34;1.60;99.90
59651;DHT22;45954;49.768;8.636;2023-03-01T07:12:00;1.60;99.90
59651;DHT22;45954;49.768;8.636;2023-03-01T07:14:26;1.60;99.90
59651;DHT22;45954;49.768;8.636;2023-03-01T07:16:53;1.80;99.90
59651;DHT22;45954;49.768;8.636;2023-03-01T07:19:20;2.00;99.90
59651;DHT22;45954;49.768;8.636;2023-03-01T07:21:47;1.80;99.90
59651;DHT22;45954;49.768;8.636;2023-03-01T07:24:13;2.10;99.90
59651;DHT22;45954;49.768;8.636;2023-03-01T07:26:39;2.40;99.90
59651;DHT22;45954;49.768;8.636;2023-03-01T07:29:07;2.50;99.90
59651;DHT22;45954;49.768;8.636;2023-03-01T07:31:33;2.50;99.90
59651;DHT22;45954;49.768;8.636;2023-03-01T07:33:59;2.50;99.90
59651;DHT22;45954;49.768;8.636;2023-03-01T07:36:25;2.60;99.90
59651;DHT22;45954;49.768;8.636;2023-03-01T07:38:52;2.60;99.90
59651;DHT22;45954;49.768;8.636;2023-03-01T07:41:18;2.80;99.90
59651;DHT22;45954;49.768;8.636;2023-03-01T07:43:44;3.10;99.90
59651;DHT22;45954;49.768;8.636;2023-03-01T07:46:10;2.80;99.90
59651;DHT22;45954;49.768;8.636;2023-03-01T07:48:36;2.90;99.90
59651;DHT22;45954;49.768;8.636;2023-03-01T07:51:04;3.00;99.90
59651;DHT22;45954;49.768;8.636;2023-03-01T07:53:31;2.90;99.90
59651;DHT22;45954;49.768;8.636;2023-03-01T07:56:03;2.70;99.90
59651;DHT22;45954;49.768;8.636;2023-03-01T07:58:30;2.80;99.90
59651;DHT22;45954;49.768;8.636;2023-03-01T08:00:55;3.00;99.90
59651;DHT22;45954;49.768;8.636;2023-03-01T08:03:21;3.00;99.90
59651;DHT22;45954;49.768;8.636;2023-03-01T08:05:47;3.10;99.90
59651;DHT22;45954;49.768;8.636;2023-03-01T08:08:13;3.40;99.90
59651;DHT22;45954;49.768;8.636;2023-03-01T08:10:39;3.20;99.90
59651;DHT22;45954;49.768;8.636;2023-03-01T08:13:04;3.50;99.90
59651;DHT22;45954;49.768;8.636;2023-03-01T08:15:30;3.70;99.00
59651;DHT22;45954;49.768;8.636;2023-03-01T08:17:56;3.70;99.40
59651;DHT22;45954;49.768;8.636;2023-03-01T08:20:22;4.00;98.70
59651;DHT22;45954;49.768;8.636;2023-03-01T08:22:48;3.60;99.10
59651;DHT22;45954;49.768;8.636;2023-03-01T08:25:14;3.60;99.50
59651;DHT22;45954;49.768;8.636;2023-03-01T08:27:40;4.00;99.10
59651;DHT22;45954;49.768;8.636;2023-03-01T08:30:06;3.60;98.60
59651;DHT22;45954;49.768;8.636;2023-03-01T08:32:38;3.70;99.00
59651;DHT22;45954;49.768;8.636;2023-03-01T08:35:04;3.90;98.60
59651;DHT22;45954;49.768;8.636;2023-03-01T08:37:30;3.70;98.70
59651;DHT22;45954;49.768;8.636;2023-03-01T08:39:59;3.60;99.00
59651;DHT22;45954;49.768;8.636;2023-03-01T08:42:26;3.90;98.80
59651;DHT22;45954;49.768;8.636;2023-03-01T08:44:52;3.90;98.20
59651;DHT22;45954;49.768;8.636;2023-03-01T08:47:18;4.10;98.30
59651;DHT22;45954;49.768;8.636;2023-03-01T08:49:43;4.10;97.50
59651;DHT22;45954;49.768;8.636;2023-03-01T08:52:09;4.20;98.20
59651;DHT22;45954;49.768;8.636;2023-03-01T08:54:35;4.40;97.90
59651;DHT22;45954;49.768;8.636;2023-03-01T08:57:02;4.30;97.70
59651;DHT22;45954;49.768;8.636;2023-03-01T08:59:28;4.40;97.50
59651;DHT22;45954;49.768;8.636;2023-03-01T09:01:55;4.60;98.00
59651;DHT22;45954;49.768;8.636;2023-03-01T09:04:21;4.50;97.70
59651;DHT22;45954;49.768;8.636;2023-03-01T09:06:47;4.90;97.50
59651;DHT22;45954;49.768;8.636;2023-03-01T09:09:16;4.80;97.10
59651;DHT22;45954;49.768;8.636;2023-03-01T09:11:44;4.60;97.00
59651;DHT22;45954;49.768;8.636;2023-03-01T09:14:12;4.60;96.80
59651;DHT22;45954;49.768;8.636;2023-03-01T09:16:39;4.90;97.00
59651;DHT22;45954;49.768;8.636;2023-03-01T09:19:05;5.00;97.00
59651;DHT22;45954;49.768;8.636;2023-03-01T09:21:31;4.90;96.40
59651;DHT22;45954;49.768;8.636;2023-03-01T09:23:57;5.00;96.30
59651;DHT22;45954;49.768;8.636;2023-03-01T09:26:24;5.20;96.30
59651;DHT22;45954;49.768;8.636;2023-03-01T09:28:53;5.20;95.60
59651;DHT22;45954;49.768;8.636;2023-03-01T09:31:22;5.10;96.00
59651;DHT22;45954;49.768;8.636;2023-03-01T09:33:51;5.10;96.30
59651;DHT22;45954;49.768;8.636;2023-03-01T09:36:21;5.10;96.70
59651;DHT22;45954;49.768;8.636;2023-03-01T09:38:49;5.50;96.00
59651;DHT22;45954;49.768;8.636;2023-03-01T09:44:51;5.60;95.70
59651;DHT22;45954;49.768;8.636;2023-03-01T09:47:18;6.00;96.20
59651;DHT22;45954;49.768;8.636;2023-03-01T09:50:04;6.00;95.00
59651;DHT22;45954;49.768;8.636;2023-03-01T09:52:47;6.00;94.40
59651;DHT22;45954;49.768;8.636;2023-03-01T09:55:31;6.10;94.20
59651;DHT22;45954;49.768;8.636;2023-03-01T10:01:20;6.40;93.80
59651;DHT22;45954;49.768;8.636;2023-03-01T10:07:23;6.40;92.00
59651;DHT22;45954;49.768;8.636;2023-03-01T10:09:54;6.50;93.50
59651;DHT22;45954;49.768;8.636;2023-03-01T10:12:27;6.80;92.70
59651;DHT22;45954;49.768;8.636;2023-03-01T10:17:56;7.50;91.70
59651;DHT22;45954;49.768;8.636;2023-03-01T10:20:26;7.60;92.80
59651;DHT22;45954;49.768;8.636;2023-03-01T10:22:59;7.40;90.80
59651;DHT22;45954;49.768;8.636;2023-03-01T10:31:38;8.00;90.50
59651;DHT22;45954;49.768;8.636;2023-03-01T10:34:16;8.10;91.20
59651;DHT22;45954;49.768;8.636;2023-03-01T10:36:47;8.10;88.50
59651;DHT22;45954;49.768;8.636;2023-03-01T10:39:18;7.70;88.40
59651;DHT22;45954;49.768;8.636;2023-03-01T10:42:02;8.00;87.70
59651;DHT22;45954;49.768;8.636;2023-03-01T10:44:47;7.90;87.70
59651;DHT22;45954;49.768;8.636;2023-03-01T10:47:21;8.00;85.90
59651;DHT22;45954;49.768;8.636;2023-03-01T10:50:00;8.10;86.40
59651;DHT22;45954;49.768;8.636;2023-03-01T10:52:40;8.70;85.50
59651;DHT22;45954;49.768;8.636;2023-03-01T10:57:39;9.00;82.70
59651;DHT22;45954;49.768;8.636;2023-03-01T11:00:24;8.90;83.50
59651;DHT22;45954;49.768;8.636;2023-03-01T11:03:13;8.90;84.10
59651;DHT22;45954;49.768;8.636;2023-03-01T11:08:44;9.00;85.00
59651;DHT22;45954;49.768;8.636;2023-03-01T11:11:33;9.00;81.00
59651;DHT22;45954;49.768;8.636;2023-03-01T11:14:15;8.80;80.80
59651;DHT22;45954;49.768;8.636;2023-03-01T11:16:58;8.90;82.50
59651;DHT22;45954;49.768;8.636;2023-03-01T11:19:25;9.10;80.70
59651;DHT22;45954;49.768;8.636;2023-03-01T11:21:53;9.30;81.70
59651;DHT22;45954;49.768;8.636;2023-03-01T11:24:38;9.70;83.10
59651;DHT22;45954;49.768;8.636;2023-03-01T11:27:36;9.90;78.40
59651;DHT22;45954;49.768;8.636;2023-03-01T11:30:36;9.90;78.50
59651;DHT22;45954;49.768;8.636;2023-03-01T11:33:17;10.10;78.60
59651;DHT22;45954;49.768;8.636;2023-03-01T11:36:00;10.20;78.10
59651;DHT22;45954;49.768;8.636;2023-03-01T11:38:29;10.40;76.30
59651;DHT22;45954;49.768;8.636;2023-03-01T11:41:06;10.30;76.30
59651;DHT22;45954;49.768;8.636;2023-03-01T11:52:22;10.20;76.80
59651;DHT22;45954;49.768;8.636;2023-03-01T11:58:05;10.00;76.80
59651;DHT22;45954;49.768;8.636;2023-03-01T12:03:47;9.70;75.20
59651;DHT22;45954;49.768;8.636;2023-03-01T12:10:25;9.90;74.90
59651;DHT22;45954;49.768;8.636;2023-03-01T12:15:59;10.10;75.00
59651;DHT22;45954;49.768;8.636;2023-03-01T12:22:20;10.10;74.40
59651;DHT22;45954;49.768;8.636;2023-03-01T12:27:51;10.40;73.20
59651;DHT22;45954;49.768;8.636;2023-03-01T12:51:31;10.70;70.30
59651;DHT22;45954;49.768;8.636;2023-03-01T12:54:05;11.10;68.10
59651;DHT22;45954;49.768;8.636;2023-03-01T12:56:37;11.00;68.40
59651;DHT22;45954;49.768;8.636;2023-03-01T13:05:53;10.90;68.20
59651;DHT22;45954;49.768;8.636;2023-03-01T13:08:15;10.60;66.80
59651;DHT22;45954;49.768;8.636;2023-03-01T13:10:48;10.70;68.00
59651;DHT22;45954;49.768;8.636;2023-03-01T13:13:26;10.70;67.70
59651;DHT22;45954;49.768;8.636;2023-03-01T13:15:54;10.80;67.00
59651;DHT22;45954;49.768;8.636;2023-03-01T13:20:53;10.80;67.40
59651;DHT22;45954;49.768;8.636;2023-03-01T13:26:03;11.30;66.40
59651;DHT22;45954;49.768;8.636;2023-03-01T13:28:54;11.70;66.00
59651;DHT22;45954;49.768;8.636;2023-03-01T13:39:03;11.90;65.50
59651;DHT22;45954;49.768;8.636;2023-03-01T13:44:41;12.20;64.00
59651;DHT22;45954;49.768;8.636;2023-03-01T13:49:57;11.60;65.10
59651;DHT22;45954;49.768;8.636;2023-03-01T13:52:44;12.00;63.70
59651;DHT22;45954;49.768;8.636;2023-03-01T13:57:42;11.80;65.10
59651;DHT22;45954;49.768;8.636;2023-03-01T14:03:11;12.30;63.60
59651;DHT22;45954;49.768;8.636;2023-03-01T14:05:43;11.90;63.20
59651;DHT22;45954;49.768;8.636;2023-03-01T14:08:27;12.10;63.90
59651;DHT22;45954;49.768;8.636;2023-03-01T14:19:29;12.40;61.40
59651;DHT22;45954;49.768;8.636;2023-03-01T14:22:23;12.40;61.00
59651;DHT22;45954;49.768;8.636;2023-03-01T14:25:00;12.60;61.70
59651;DHT22;45954;49.768;8.636;2023-03-01T14:27:38;12.30;62.60
59651;DHT22;45954;49.768;8.636;2023-03-01T14:30:19;12.70;61.40
59651;DHT22;45954;49.768;8.636;2023-03-01T14:33:02;12.70;61.10
59651;DHT22;45954;49.768;8.636;2023-03-01T14:35:35;12.80;60.40
59651;DHT22;45954;49.768;8.636;2023-03-01T14:38:02;12.90;60.20
59651;DHT22;45954;49.768;8.636;2023-03-01T14:40:35;13.10;60.70
59651;DHT22;45954;49.768;8.636;2023-03-01T14:43:10;13.60;59.90
59651;DHT22;45954;49.768;8.636;2023-03-01T14:45:37;14.20;58.50
59651;DHT22;45954;49.768;8.636;2023-03-01T14:48:07;13.90;58.40
59651;DHT22;45954;49.768;8.636;2023-03-01T14:50:35;13.80;57.60
59651;DHT22;45954;49.768;8.636;2023-03-01T14:53:18;14.10;57.20
59651;DHT22;45954;49.768;8.636;2023-03-01T14:55:54;15.20;55.60
59651;DHT22;45954;49.768;8.636;2023-03-01T14:58:23;15.30;55.30
59651;DHT22;45954;49.768;8.636;2023-03-01T15:01:01;15.70;54.40
59651;DHT22;45954;49.768;8.636;2023-03-01T15:03:41;15.40;55.10
59651;DHT22;45954;49.768;8.636;2023-03-01T15:06:15;15.70;53.20
59651;DHT22;45954;49.768;8.636;2023-03-01T15:08:49;15.70;53.70
59651;DHT22;45954;49.768;8.636;2023-03-01T15:11:32;15.90;53.50
59651;DHT22;45954;49.768;8.636;2023-03-01T15:13:59;17.10;52.30
59651;DHT22;45954;49.768;8.636;2023-03-01T15:16:33;18.00;51.70
59651;DHT22;45954;49.768;8.636;2023-03-01T15:19:02;16.10;52.80
59651;DHT22;45954;49.768;8.636;2023-03-01T15:21:37;17.10;51.60
59651;DHT22;45954;49.768;8.636;2023-03-01T15:26:41;14.70;54.40
59651;DHT22;45954;49.768;8.636;2023-03-01T15:29:17;14.30;55.30
59651;DHT22;45954;49.768;8.636;2023-03-01T15:32:01;13.60;56.20
59651;DHT22;45954;49.768;8.636;2023-03-01T15:34:36;12.70;57.40
59651;DHT22;45954;49.768;8.636;2023-03-01T15:37:06;12.60;59.10
59651;DHT22;45954;49.768;8.636;2023-03-01T15:39:43;12.40;58.40
59651;DHT22;45954;49.768;8.636;2023-03-01T15:47:48;11.90;60.70
59651;DHT22;45954;49.768;8.636;2023-03-01T15:50:29;11.40;60.90
59651;DHT22;45954;49.768;8.636;2023-03-01T15:53:01;11.20;61.50
59651;DHT22;45954;49.768;8.636;2023-03-01T15:55:32;11.10;62.10
59651;DHT22;45954;49.768;8.636;2023-03-01T15:58:10;11.20;62.30
59651;DHT22;45954;49.768;8.636;2023-03-01T16:00:38;11.10;62.30
59651;DHT22;45954;49.768;8.636;2023-03-01T16:03:05;10.70;63.00
59651;DHT22;45954;49.768;8.636;2023-03-01T16:05:33;11.60;62.60
59651;DHT22;45954;49.768;8.636;2023-03-01T16:08:00;12.30;61.60
59651;DHT22;45954;49.768;8.636;2023-03-01T16:10:27;12.30;61.30
59651;DHT22;45954;49.768;8.636;2023-03-01T16:12:53;12.20;61.40
59651;DHT22;45954;49.768;8.636;2023-03-01T16:15:23;12.00;61.50
59651;DHT22;45954;49.768;8.636;2023-03-01T16:17:55;11.50;62.30
59651;DHT22;45954;49.768;8.636;2023-03-01T16:20:24;10.80;63.80
59651;DHT22;45954;49.768;8.636;2023-03-01T16:22:51;10.30;64.80
59651;DHT22;45954;49.768;8.636;2023-03-01T16:25:19;9.80;65.70
59651;DHT22;45954;49.768;8.636;2023-03-01T16:27:49;9.30;66.70
59651;DHT22;45954;49.768;8.636;2023-03-01T16:30:19;9.00;67.90
59651;DHT22;45954;49.768;8.636;2023-03-01T16:32:47;8.90;68.50
59651;DHT22;45954;49.768;8.636;2023-03-01T16:35:18;8.90;69.40
59651;DHT22;45954;49.768;8.636;2023-03-01T16:37:46;8.90;69.50
59651;DHT22;45954;49.768;8.636;2023-03-01T16:40:27;8.70;69.50
59651;DHT22;45954;49.768;8.636;2023-03-01T16:42:55;8.60;70.10
59651;DHT22;45954;49.768;8.636;2023-03-01T16:45:27;8.60;70.70
59651;DHT22;45954;49.768;8.636;2023-03-01T16:47:54;8.50;71.00
59651;DHT22;45954;49.768;8.636;2023-03-01T16:50:20;8.50;71.70
59651;DHT22;45954;49.768;8.636;2023-03-01T16:52:46;8.40;72.10
59651;DHT22;45954;49.768;8.636;2023-03-01T16:55:12;8.40;72.10
59651;DHT22;45954;49.768;8.636;2023-03-01T16:57:38;8.50;72.70
59651;DHT22;45954;49.768;8.636;2023-03-01T17:00:06;8.30;73.00
59651;DHT22;45954;49.768;8.636;2023-03-01T17:02:40;8.30;73.10
59651;DHT22;45954;49.768;8.636;2023-03-01T17:05:08;8.30;74.70
59651;DHT22;45954;49.768;8.636;2023-03-01T17:07:35;8.00;74.60
59651;DHT22;45954;49.768;8.636;2023-03-01T17:10:02;7.90;75.00
59651;DHT22;45954;49.768;8.636;2023-03-01T17:12:29;7.70;75.70
59651;DHT22;45954;49.768;8.636;2023-03-01T17:14:55;7.70;76.50
59651;DHT22;45954;49.768;8.636;2023-03-01T17:17:21;7.60;77.00
59651;DHT22;45954;49.768;8.636;2023-03-01T17:19:47;7.60;77.40
59651;DHT22;45954;49.768;8.636;2023-03-01T17:22:13;7.40;77.70
59651;DHT22;45954;49.768;8.636;2023-03-01T17:24:41;7.30;78.90
59651;DHT22;45954;49.768;8.636;2023-03-01T17:27:07;7.20;79.40
59651;DHT22;45954;49.768;8.636;2023-03-01T17:29:34;7.20;80.00
59651;DHT22;45954;49.768;8.636;2023-03-01T17:32:00;7.10;81.20
59651;DHT22;45954;49.768;8.636;2023-03-01T17:34:26;7.10;81.00
59651;DHT22;45954;49.768;8.636;2023-03-01T17:36:52;6.90;81.80
59651;DHT22;45954;49.768;8.636;2023-03-01T17:39:19;6.80;82.50
59651;DHT22;45954;49.768;8.636;2023-03-01T17:41:51;6.90;83.00
59651;DHT22;45954;49.768;8.636;2023-03-01T17:44:17;6.80;83.50
59651;DHT22;45954;49.768;8.636;2023-03-01T17:46:43;6.70;84.10
59651;DHT22;45954;49.768;8.636;2023-03-01T17:49:09;6.70;84.70
59651;DHT22;45954;49.768;8.636;2023-03-01T17:51:35;6.80;84.60
59651;DHT22;45954;49.768;8.636;2023-03-01T17:54:01;6.80;85.10
59651;DHT22;45954;49.768;8.636;2023-03-01T17:56:27;6.60;85.80
59651;DHT22;45954;49.768;8.636;2023-03-01T17:58:54;6.50;86.30
59651;DHT22;45954;49.768;8.636;2023-03-01T18:01:21;6.40;86.60
59651;DHT22;45954;49.768;8.636;2023-03-01T18:03:50;6.40;87.90
59651;DHT22;45954;49.768;8.636;2023-03-01T18:06:22;6.40;87.70
59651;DHT22;45954;49.768;8.636;2023-03-01T18:08:49;6.30;88.50
59651;DHT22;45954;49.768;8.636;2023-03-01T18:11:17;6.40;88.50
59651;DHT22;45954;49.768;8.636;2023-03-01T18:13:44;6.20;88.50